Aeroporto :
LOGIN :

Iscrizione | Disclaimer

   EN    FR    IT 

 










Sommario :    VFR   VFR Marginale   IFR   IFR Intensivo   IFR Molto Intensivo
Visibilità : 
Base nubi : 
>= 8 km
>= 3000ft
5 / 8 km
1000 / 3000 ft
1500m / 5 km
500 / 1000 ft
800 / 1500m
200 / 500 ft
< 800m
< 200 ft
Simboli :   Temporali  Nebbia  Neve Forte  Precipitazioni Forti  Vento > 20 kt
SIGMETs :   Varie  Temporali  Ghiacco  Turbolenza  Onda orograficha  Ceneri Vulcaniche






- Altitudine del aeroporto : 286 ft
- Codice IATA : TRF


ENTO - Sandefjord , Torp

ULTIMO METAR :
  • 171920Z 23020KT CAVOK 06/02 Q0986 TEMPO 22020G30KT

METARs OBSOLETI :
  • 171850Z 24019KT 9999 FEW035 06/02 Q0986 TEMPO 22020G30KT
  • 171820Z 23022G41KT 200V260 9999 FEW035 07/02 Q0985 TEMPO 22020G30KT
  • 171750Z 23021KT 9999 FEW035 07/01 Q0984 TEMPO 22022G32KT
  • 171720Z 23024G37KT 9999 FEW020 07/02 Q0983 NOSIG
  • 171650Z 23023G35KT 9999 FEW020 07/01 Q0983 TEMPO 21022KT

TAF TAF ENTO
Valido dal 17 a 18 ore il 18 a 18 ore UTC


1718/1818 21015KT 9999 FEW020
TEMPO 1718/1721 22020G30KT
TEMPO 1809/1815 23018G28KT



MetMap, La meteo Aeronautica in un colpo d'occhio ! - Copyright ORBIFLY Dicembre 2007 - Disclaimer

ORBIFLY MET'MAP TEAM :

Programmazione e sviluppo : Alexandra Zaïnal
Concezione : Baudouin d'Aumeries
Aiuto per la programmazione : Marc-Olivier Méhu
Supporto tecnico e logistico : Manuel Goepfert
Aiuto per la traduzione : Arnaldo La Scala

Contatto : metmap@orbifly.com




FONTI E CREDITI :

   NOAA